Terminal Aerodrome Forecast
Issued by NWS

Home | Current Version | Previous Version | Text Only | Print | Product List | Glossary On
Versions: 1 2 3 4 5 6 7 8 9 10 11 12 13 14
000
FTAK31 PAFA 260526
TAFAGA
TAF
PAGA 260526Z 2606/2706 13011KT P6SM OVC050
     FM261600 15011KT P6SM -SHSN BKN015 OVC050
     FM262100 14009KT P6SM OVC050=

USA.gov is the U.S. government's official web portal to all federal, state and local government web resources and services.